Historyczne dane pomiarowe

Dodano dane terminowe – wersja testowa.

Dane z okresu 1951-2019

Wersja bazy: 1.34 [2019-03-16, lista zmian], aktualizacja planowana na 2019-04-15

Dane meteo z obszaru Polski uzyskane na podstawie danych udostępnionych przez Instytut Meteorologii i Gospodarki Wodnej – Państwowy Instytut Badawczy.

 

Wybierz Datę:    

       

TemperaturaWilgotnośćWiatrCiśnienieOpadyŚniegCzas trwania zjawisk
 Stacja t tx tn tng RH VA  wxwx mslp ppp RRR   cm mm wxwxwxwxwxwxwx
1972-06-13 21.6 26.5 18.0- 74.0- 5.3 2.3---- 0.0------------
1972-06-14 20.0 26.9 14.1- 79.3- 5.3 2.0---- 3.0------------
1972-06-15 18.6 26.2 14.5- 76.8- 4.0 1.3---- 3.0------------
1972-06-16 16.7 23.4 13.4- 73.0- 5.0 5.0---- 1.4------------
1972-06-17 15.3 21.4 10.3- 68.0- 4.3 1.3---- 0.0------------
1972-06-18 14.7 21.4 9.2- 75.8- 6.3 1.0---- 0.0------------
1972-06-19 17.6 23.9 9.9- 69.3- 3.0 0.7---- 0.0------------
1972-06-20 17.1 23.9 11.5- 71.3- 3.7 1.0---- 0.0------------
1972-06-21 15.1 22.5 8.3- 60.0- 0.7 1.0---- 0.0------------
1972-06-22 20.3 27.9 11.0- 54.8- 1.7 1.3---- 0.0------------
1972-06-23 18.8 27.2 16.3- 74.0- 5.3 1.3---- 18.1------------
1972-06-24 10.9 18.8 8.6- 94.3- 8.0 0.3---- 10.1------------
1972-06-25 9.5 13.8 7.1- 86.0- 8.0 1.3---- 30.0------------
1972-06-26 11.3 16.3 8.0- 87.8- 6.3 1.0---- 0.3------------
1972-06-27 12.3 16.3 7.6- 91.8- 6.7 1.0---- 20.7------------
1972-06-28 13.8 19.8 8.5- 94.0- 5.0 1.3---- 24.1------------
1972-06-29 17.2 22.9 12.6- 84.3- 5.3 2.7---- 7.6------------
1972-06-30 19.3 25.9 13.3- 78.3- 1.7 1.0---- 0.0------------
1972-07-01 14.3 22.5 12.5- 86.8- 8.0 3.0---- 0.0------------
1972-07-02 13.8 19.8 11.1- 72.8- 7.7 3.3---- 0.6------------
1972-07-03 15.5 19.3 13.2- 71.3- 7.7 2.7---- 0.0------------
1972-07-04 14.1 16.4 12.7- 89.0- 7.7 0.7---- 3.1------------
1972-07-05 16.4 22.5 10.1- 78.3- 2.0 0.7---- 0.0------------
1972-07-06 18.3 24.4 10.9- 67.5- 3.0 0.3---- 0.0------------
1972-07-07 16.9 25.4 11.7- 81.3- 4.0 1.3---- 3.2------------
1972-07-08 18.7 23.3 15.0- 72.3- 4.7 2.3---- 0.0------------
1972-07-09 21.1 27.1 15.5- 63.8- 3.7 0.7---- 0.0------------
1972-07-10 21.3 27.4 15.4- 62.0- 1.7 1.3---- 0.0------------
1972-07-11 14.6 22.4 11.9- 89.3- 7.7 5.7---- 0.3------------
1972-07-12 12.5 14.0 10.5- 93.3- 8.0 1.7---- 3.8------------
164.8 ms

 

Źródłem pochodzenia danych jest Instytut Meteorologii i Gospodarki Wodnej – Państwowy Instytut Badawczy. Dane Instytutu Meteorologii i Gospodarki Wodnej – Państwowego Instytutu Badawczego zostały przetworzone.

Dane źródłowe można odnaleźć na stronie https://dane.imgw.pl